Time;durP1;ratioP1;P1;durP2;ratioP2;P2;SDS_P1;SDS_P2;PMS_P1;PMS_P2;Temp;Humidity;BMP_temperature;BMP_pressure;BME280_temperature;BME280_humidity;BME280_pressure;Samples;Min_cycle;Max_cycle;Signal;HPM_P1;HPM_P2
2024/03/16 00:02:26;;;;;;;1.27;1.17;;;;;;;;;;10142424;28;20103;-76
2024/03/16 00:07:20;;;;;;;1.83;1.00;;;;;;;;;;10138823;28;20055;-76
2024/03/16 00:12:15;;;;;;;0.82;0.80;;;;;;;;;;10129123;28;20049;-75
2024/03/16 00:17:09;;;;;;;1.45;0.80;;;;;;;;;;10137827;28;20064;-76
2024/03/16 00:22:03;;;;;;;1.90;1.13;;;;;;;;;;10141487;28;20056;-76
2024/03/16 00:26:57;;;;;;;1.33;1.23;;;;;;;;;;10145502;28;20057;-76
2024/03/16 00:31:52;;;;;;;2.80;0.85;;;;;;;;;;10148969;28;20044;-74
2024/03/16 00:36:45;;;;;;;0.63;0.63;;;;;;;;;;10142566;28;20053;-76
2024/03/16 00:41:40;;;;;;;1.25;1.00;;;;;;;;;;10146622;28;20827;-76
2024/03/16 00:46:34;;;;;;;1.05;1.05;;;;;;;;;;10145014;28;20143;-74
2024/03/16 00:51:28;;;;;;;8.40;1.05;;;;;;;;;;10145614;28;20515;-74
2024/03/16 00:56:22;;;;;;;0.80;0.80;;;;;;;;;;10146038;28;20177;-73
2024/03/16 01:01:17;;;;;;;0.80;0.80;;;;;;;;;;10145867;28;20079;-77
2024/03/16 01:06:11;;;;;;;0.90;0.90;;;;;;;;;;10146369;28;20135;-76
2024/03/16 01:11:05;;;;;;;1.38;1.27;;;;;;;;;;10144396;28;20045;-75
2024/03/16 01:15:59;;;;;;;1.02;0.90;;;;;;;;;;10144869;28;20060;-75
2024/03/16 01:20:53;;;;;;;1.70;1.30;;;;;;;;;;10145590;28;20060;-75
2024/03/16 01:25:47;;;;;;;2.25;1.52;;;;;;;;;;10145514;28;20049;-75
2024/03/16 01:30:41;;;;;;;3.42;2.33;;;;;;;;;;10144346;28;20083;-74
2024/03/16 01:35:36;;;;;;;3.20;2.60;;;;;;;;;;10144424;28;20147;-75
2024/03/16 01:40:32;;;;;;;8.57;3.90;;;;;;;;;;10147452;28;20508;-75
2024/03/16 01:45:26;;;;;;;5.70;4.60;;;;;;;;;;10143940;28;20070;-74
2024/03/16 01:50:25;;;;;;;5.15;4.68;;;;;;;;;;10125145;28;20050;-74
2024/03/16 01:55:20;;;;;;;9.52;7.50;;;;;;;;;;10143088;28;20055;-75
2024/03/16 02:00:15;;;;;;;9.52;8.18;;;;;;;;;;10143376;28;20076;-75
2024/03/16 02:05:09;;;;;;;12.90;9.05;;;;;;;;;;10143970;28;20049;-75
2024/03/16 02:10:08;;;;;;;7.70;6.32;;;;;;;;;;10143012;28;20144;-74
2024/03/16 02:15:03;;;;;;;6.93;5.35;;;;;;;;;;10141612;28;20142;-74
2024/03/16 02:20:16;;;;;;;8.98;7.13;;;;;;;;;;10136344;28;20060;-75
2024/03/16 02:25:28;;;;;;;6.70;5.13;;;;;;;;;;10142345;28;20052;-75
2024/03/16 02:30:24;;;;;;;7.53;5.53;;;;;;;;;;10141628;28;20059;-75
2024/03/16 02:35:18;;;;;;;5.05;4.55;;;;;;;;;;10141834;28;20044;-75
2024/03/16 02:40:13;;;;;;;5.03;3.67;;;;;;;;;;10142729;28;20072;-75
2024/03/16 02:45:08;;;;;;;8.50;5.10;;;;;;;;;;10142191;28;20155;-74
2024/03/16 02:50:03;;;;;;;4.85;4.05;;;;;;;;;;10142130;28;20048;-75
2024/03/16 02:54:58;;;;;;;5.53;2.95;;;;;;;;;;10142539;28;20076;-75
2024/03/16 02:59:53;;;;;;;3.00;2.70;;;;;;;;;;10141637;28;20045;-75
2024/03/16 03:04:47;;;;;;;4.63;2.30;;;;;;;;;;10141734;28;20443;-75
2024/03/16 03:09:41;;;;;;;5.40;4.00;;;;;;;;;;10140717;28;20052;-75
2024/03/16 03:14:34;;;;;;;2.45;1.60;;;;;;;;;;10141253;28;20056;-75
2024/03/16 03:19:28;;;;;;;3.78;2.25;;;;;;;;;;10141011;28;21087;-75
2024/03/16 03:24:23;;;;;;;2.40;1.58;;;;;;;;;;10141974;28;20064;-75
2024/03/16 03:29:16;;;;;;;2.50;2.30;;;;;;;;;;10124238;28;20044;-76
2024/03/16 03:34:10;;;;;;;2.42;2.22;;;;;;;;;;10140256;28;20048;-75
2024/03/16 03:39:04;;;;;;;4.35;2.80;;;;;;;;;;10139492;28;20455;-75
2024/03/16 03:43:59;;;;;;;4.25;2.30;;;;;;;;;;10140295;28;20057;-75
2024/03/16 03:49:10;;;;;;;7.03;2.47;;;;;;;;;;10141253;28;20094;-75
2024/03/16 03:54:08;;;;;;;4.30;2.83;;;;;;;;;;10139350;28;20508;-75
2024/03/16 03:59:02;;;;;;;3.67;3.20;;;;;;;;;;10146311;28;20132;-76
2024/03/16 04:03:56;;;;;;;6.25;3.38;;;;;;;;;;10146367;28;20051;-75
2024/03/16 04:08:50;;;;;;;4.63;3.50;;;;;;;;;;10147359;28;20045;-76
2024/03/16 04:13:44;;;;;;;5.63;4.28;;;;;;;;;;10146444;28;20048;-76
2024/03/16 04:18:39;;;;;;;3.75;2.88;;;;;;;;;;10147639;28;20053;-76
2024/03/16 04:23:34;;;;;;;3.25;2.80;;;;;;;;;;10146040;28;20052;-76
2024/03/16 04:28:28;;;;;;;5.18;3.33;;;;;;;;;;10148392;28;20067;-76
2024/03/16 04:33:22;;;;;;;8.63;5.75;;;;;;;;;;10144678;28;20056;-75
2024/03/16 04:38:17;;;;;;;12.30;7.45;;;;;;;;;;10148588;28;20057;-76
2024/03/16 04:43:11;;;;;;;6.97;6.05;;;;;;;;;;10145041;28;20063;-76
2024/03/16 04:48:06;;;;;;;7.10;5.18;;;;;;;;;;10145828;28;20139;-75
2024/03/16 04:53:00;;;;;;;7.47;5.85;;;;;;;;;;10146852;28;20048;-76
2024/03/16 04:57:54;;;;;;;6.75;4.68;;;;;;;;;;10145533;28;20139;-76
2024/03/16 05:02:49;;;;;;;6.50;5.57;;;;;;;;;;10144888;28;20055;-76
2024/03/16 05:07:43;;;;;;;9.18;7.63;;;;;;;;;;10144498;28;20060;-76
2024/03/16 05:12:37;;;;;;;8.73;7.38;;;;;;;;;;10144940;28;20052;-75
2024/03/16 05:17:31;;;;;;;6.78;5.85;;;;;;;;;;10145645;28;20060;-74
2024/03/16 05:22:25;;;;;;;7.05;6.18;;;;;;;;;;10144711;28;20116;-75
2024/03/16 05:27:20;;;;;;;9.45;7.70;;;;;;;;;;10144562;28;20060;-74
2024/03/16 05:32:14;;;;;;;11.70;7.95;;;;;;;;;;10147984;28;20052;-74
2024/03/16 05:37:08;;;;;;;9.68;6.80;;;;;;;;;;10146118;28;20493;-74
2024/03/16 05:42:06;;;;;;;11.30;10.10;;;;;;;;;;10144431;28;20051;-75
2024/03/16 05:47:03;;;;;;;10.13;6.18;;;;;;;;;;10143323;28;20113;-74
2024/03/16 05:51:58;;;;;;;9.63;7.70;;;;;;;;;;10143594;28;20049;-74
2024/03/16 05:56:52;;;;;;;21.20;18.70;;;;;;;;;;10142173;28;20049;-73
2024/03/16 06:01:46;;;;;;;11.75;10.00;;;;;;;;;;10139399;28;20069;-74
2024/03/16 06:06:40;;;;;;;9.40;7.47;;;;;;;;;;10140770;28;20135;-74
2024/03/16 06:11:34;;;;;;;17.95;11.65;;;;;;;;;;10145263;28;20508;-75
2024/03/16 06:16:28;;;;;;;6.68;5.03;;;;;;;;;;10145866;28;20151;-73
2024/03/16 06:21:22;;;;;;;8.13;4.18;;;;;;;;;;10145880;28;20040;-73
2024/03/16 06:26:19;;;;;;;10.80;7.38;;;;;;;;;;10141315;28;20501;-74
2024/03/16 06:31:13;;;;;;;10.85;7.13;;;;;;;;;;10144006;28;20060;-72
2024/03/16 06:36:07;;;;;;;12.55;7.38;;;;;;;;;;10139106;28;20068;-74
2024/03/16 06:41:01;;;;;;;5.28;3.78;;;;;;;;;;10144610;28;20056;-73
2024/03/16 06:45:56;;;;;;;7.10;3.13;;;;;;;;;;10131137;28;20060;-73
2024/03/16 06:50:53;;;;;;;2.63;2.15;;;;;;;;;;10124666;28;20057;-76
2024/03/16 06:56:07;;;;;;;2.40;2.20;;;;;;;;;;10144060;28;20143;-76
2024/03/16 07:01:01;;;;;;;5.00;2.22;;;;;;;;;;10142437;28;20056;-76
2024/03/16 07:05:56;;;;;;;2.33;1.92;;;;;;;;;;10142018;28;20179;-75
2024/03/16 07:10:51;;;;;;;3.13;1.83;;;;;;;;;;10143968;28;20078;-75
2024/03/16 07:15:44;;;;;;;1.75;1.50;;;;;;;;;;10143683;28;20090;-75
2024/03/16 07:20:38;;;;;;;2.30;1.67;;;;;;;;;;10144018;28;20044;-76
2024/03/16 07:25:32;;;;;;;1.85;1.40;;;;;;;;;;10130420;28;20059;-75
2024/03/16 07:30:26;;;;;;;1.77;1.30;;;;;;;;;;10144359;28;20056;-75
2024/03/16 07:35:20;;;;;;;1.85;1.50;;;;;;;;;;10152210;28;20056;-76
2024/03/16 07:40:15;;;;;;;1.95;1.85;;;;;;;;;;10151703;28;20057;-76
2024/03/16 07:45:09;;;;;;;1.58;1.30;;;;;;;;;;10150652;28;20508;-76
2024/03/16 07:50:05;;;;;;;2.00;1.60;;;;;;;;;;10140995;28;20143;-76
2024/03/16 07:55:00;;;;;;;4.40;2.33;;;;;;;;;;10149223;28;20048;-76
2024/03/16 07:59:54;;;;;;;3.00;2.30;;;;;;;;;;10148760;28;20049;-76
2024/03/16 08:04:48;;;;;;;5.55;2.97;;;;;;;;;;10138519;28;20066;-76
2024/03/16 08:09:41;;;;;;;2.72;2.10;;;;;;;;;;10149150;28;20048;-76
2024/03/16 08:14:35;;;;;;;3.78;2.13;;;;;;;;;;10148729;28;20041;-77
2024/03/16 08:19:31;;;;;;;5.85;2.10;;;;;;;;;;10147792;28;20056;-76
2024/03/16 08:24:26;;;;;;;3.42;2.15;;;;;;;;;;10147760;28;20106;-75
2024/03/16 08:29:20;;;;;;;5.40;3.67;;;;;;;;;;10148204;28;20102;-73
2024/03/16 08:34:15;;;;;;;4.05;3.65;;;;;;;;;;10140483;28;20135;-76
2024/03/16 08:39:11;;;;;;;5.03;3.50;;;;;;;;;;10144589;28;20048;-78
2024/03/16 08:44:05;;;;;;;6.90;3.95;;;;;;;;;;10148233;28;20140;-76
2024/03/16 08:48:59;;;;;;;6.15;3.00;;;;;;;;;;10146492;28;20495;-77
2024/03/16 08:53:53;;;;;;;3.25;2.33;;;;;;;;;;10146364;28;20507;-77
2024/03/16 08:58:49;;;;;;;5.28;3.83;;;;;;;;;;10145708;28;20040;-77
2024/03/16 09:03:44;;;;;;;4.68;3.28;;;;;;;;;;10144011;28;20056;-77
2024/03/16 09:08:37;;;;;;;4.22;2.95;;;;;;;;;;10145003;28;20056;-77
2024/03/16 09:13:33;;;;;;;5.10;2.20;;;;;;;;;;10138538;28;20056;-76
2024/03/16 09:18:27;;;;;;;3.38;2.38;;;;;;;;;;10142200;28;20148;-76
2024/03/16 09:23:41;;;;;;;3.08;2.78;;;;;;;;;;10133232;28;20056;-76
2024/03/16 09:28:42;;;;;;;3.28;2.40;;;;;;;;;;10137634;28;20143;-77
2024/03/16 09:33:35;;;;;;;3.67;2.00;;;;;;;;;;10142266;28;20098;-77
2024/03/16 09:38:29;;;;;;;2.53;2.00;;;;;;;;;;10142143;28;20043;-76
2024/03/16 09:43:23;;;;;;;3.53;1.67;;;;;;;;;;10144762;28;20041;-76
2024/03/16 09:48:15;;;;;;;2.30;2.10;;;;;;;;;;10125448;28;20056;-76
2024/03/16 09:53:09;;;;;;;3.15;2.00;;;;;;;;;;10123692;28;20072;-77
2024/03/16 09:58:03;;;;;;;3.35;2.30;;;;;;;;;;10121155;28;20898;-76
2024/03/16 10:02:55;;;;;;;2.88;2.35;;;;;;;;;;10124261;28;20048;-77
2024/03/16 10:07:48;;;;;;;3.03;2.72;;;;;;;;;;10121932;28;20064;-77
2024/03/16 10:12:43;;;;;;;4.03;3.13;;;;;;;;;;10118689;28;20413;-76
2024/03/16 10:17:40;;;;;;;4.00;3.20;;;;;;;;;;10114471;28;20085;-76
2024/03/16 10:22:32;;;;;;;3.97;2.92;;;;;;;;;;10118195;28;20500;-76
2024/03/16 10:27:25;;;;;;;9.35;4.13;;;;;;;;;;10124240;28;20396;-76
2024/03/16 10:32:21;;;;;;;3.47;2.53;;;;;;;;;;10114488;28;20865;-76
2024/03/16 10:37:14;;;;;;;6.53;3.42;;;;;;;;;;10122452;28;20136;-76
2024/03/16 10:42:15;;;;;;;3.70;3.38;;;;;;;;;;10107234;28;20053;-76
2024/03/16 10:47:08;;;;;;;7.07;4.47;;;;;;;;;;10120106;28;21641;-76
2024/03/16 10:52:00;;;;;;;7.28;4.55;;;;;;;;;;10120214;28;20052;-76
2024/03/16 10:56:53;;;;;;;5.57;4.57;;;;;;;;;;10119605;28;20048;-77
2024/03/16 11:01:47;;;;;;;4.22;3.45;;;;;;;;;;10122795;28;20413;-76
2024/03/16 11:06:41;;;;;;;7.13;5.65;;;;;;;;;;10121292;28;20408;-76
2024/03/16 11:11:33;;;;;;;6.97;4.05;;;;;;;;;;10123896;28;20057;-76
2024/03/16 11:16:27;;;;;;;9.80;4.55;;;;;;;;;;10108792;28;20055;-75
2024/03/16 11:21:20;;;;;;;5.78;4.47;;;;;;;;;;10120884;28;20048;-75
2024/03/16 11:26:27;;;;;;;8.40;4.93;;;;;;;;;;10121674;28;20500;-75
2024/03/16 11:31:36;;;;;;;8.03;3.50;;;;;;;;;;10116744;28;20052;-75
2024/03/16 11:36:29;;;;;;;5.15;4.47;;;;;;;;;;10119249;28;20341;-75
2024/03/16 11:41:24;;;;;;;3.72;2.90;;;;;;;;;;10123085;28;20060;-75
2024/03/16 11:46:17;;;;;;;6.22;4.72;;;;;;;;;;10121445;28;20055;-75
2024/03/16 11:51:15;;;;;;;7.32;3.97;;;;;;;;;;10120301;28;20056;-74
2024/03/16 11:56:11;;;;;;;4.25;3.63;;;;;;;;;;10120122;28;20524;-75
2024/03/16 12:01:04;;;;;;;6.82;3.42;;;;;;;;;;10117831;28;20084;-76
2024/03/16 12:05:58;;;;;;;3.80;2.55;;;;;;;;;;10122149;28;20075;-75
2024/03/16 12:10:53;;;;;;;3.03;2.70;;;;;;;;;;10120768;28;20094;-76
2024/03/16 12:15:46;;;;;;;6.65;4.57;;;;;;;;;;10120469;28;20131;-75
2024/03/16 12:20:41;;;;;;;6.35;3.80;;;;;;;;;;10110307;28;20052;-75
2024/03/16 12:25:36;;;;;;;10.25;6.18;;;;;;;;;;10127226;28;20056;-75
2024/03/16 12:30:36;;;;;;;5.97;4.47;;;;;;;;;;10124863;28;20056;-75
2024/03/16 12:35:31;;;;;;;8.30;4.45;;;;;;;;;;10118612;28;20756;-75
2024/03/16 12:40:24;;;;;;;4.90;3.90;;;;;;;;;;10128025;28;20056;-75
2024/03/16 12:45:17;;;;;;;7.43;4.43;;;;;;;;;;10127309;28;20389;-76
2024/03/16 12:50:09;;;;;;;5.38;4.05;;;;;;;;;;10126923;28;20048;-75
2024/03/16 12:55:01;;;;;;;3.10;2.80;;;;;;;;;;10126416;28;20177;-75
2024/03/16 12:59:54;;;;;;;4.68;3.92;;;;;;;;;;10125891;28;20052;-75
2024/03/16 13:04:47;;;;;;;4.50;3.55;;;;;;;;;;10124206;28;20044;-78
2024/03/16 13:09:39;;;;;;;3.83;3.20;;;;;;;;;;10126497;28;20075;-74
2024/03/16 13:14:32;;;;;;;6.88;4.05;;;;;;;;;;10134278;28;20041;-76
2024/03/16 13:19:25;;;;;;;4.63;3.60;;;;;;;;;;10126841;28;20045;-76
2024/03/16 13:24:17;;;;;;;4.10;3.63;;;;;;;;;;10125038;28;20044;-76
2024/03/16 13:29:09;;;;;;;4.22;3.67;;;;;;;;;;10124763;28;20190;-76
2024/03/16 13:34:03;;;;;;;5.38;4.45;;;;;;;;;;10123855;28;20139;-75
2024/03/16 13:38:55;;;;;;;4.68;3.80;;;;;;;;;;10125868;28;20044;-75
2024/03/16 13:43:48;;;;;;;7.20;3.80;;;;;;;;;;10123579;28;20129;-76
2024/03/16 13:48:42;;;;;;;4.85;3.85;;;;;;;;;;10117093;28;20419;-76
2024/03/16 13:53:34;;;;;;;7.45;4.10;;;;;;;;;;10120512;28;20053;-75
2024/03/16 13:58:28;;;;;;;8.98;3.85;;;;;;;;;;10124290;28;20040;-75
2024/03/16 14:03:20;;;;;;;5.50;3.95;;;;;;;;;;10115907;28;20069;-76
2024/03/16 14:08:12;;;;;;;6.45;3.55;;;;;;;;;;10123861;28;20049;-75
2024/03/16 14:13:05;;;;;;;8.50;3.80;;;;;;;;;;10120546;28;20211;-76
2024/03/16 14:17:58;;;;;;;6.20;4.05;;;;;;;;;;10126419;28;21098;-75
2024/03/16 14:22:51;;;;;;;4.22;3.25;;;;;;;;;;10122842;28;20060;-75
2024/03/16 14:27:45;;;;;;;6.53;4.65;;;;;;;;;;10122344;28;20048;-76
2024/03/16 14:32:38;;;;;;;4.43;4.03;;;;;;;;;;10112402;28;20113;-75
2024/03/16 14:37:31;;;;;;;8.30;4.05;;;;;;;;;;10119497;28;20726;-76
2024/03/16 14:42:25;;;;;;;4.00;3.60;;;;;;;;;;10121409;28;20052;-75
2024/03/16 14:47:17;;;;;;;5.90;3.83;;;;;;;;;;10121991;28;20051;-75
2024/03/16 14:52:10;;;;;;;8.35;3.60;;;;;;;;;;10122830;28;20049;-76
2024/03/16 14:57:02;;;;;;;5.45;4.95;;;;;;;;;;10123581;28;20044;-75
2024/03/16 15:01:57;;;;;;;5.50;3.97;;;;;;;;;;10119069;28;20044;-76
2024/03/16 15:06:51;;;;;;;3.78;3.47;;;;;;;;;;10122358;28;20109;-76
2024/03/16 15:11:44;;;;;;;4.30;3.50;;;;;;;;;;10121657;28;20049;-76
2024/03/16 15:16:37;;;;;;;5.03;4.00;;;;;;;;;;10123547;28;20051;-76
2024/03/16 15:21:29;;;;;;;6.20;4.00;;;;;;;;;;10121510;28;20171;-75
2024/03/16 15:26:32;;;;;;;4.30;3.97;;;;;;;;;;10121565;28;20599;-75
2024/03/16 15:31:29;;;;;;;5.47;4.45;;;;;;;;;;10122470;28;20074;-76
2024/03/16 15:36:21;;;;;;;4.88;3.80;;;;;;;;;;10117347;28;20518;-76
2024/03/16 15:41:14;;;;;;;6.50;4.35;;;;;;;;;;10118595;28;20045;-75
2024/03/16 15:46:08;;;;;;;6.35;3.50;;;;;;;;;;10121549;28;20059;-75
2024/03/16 15:51:01;;;;;;;4.68;3.80;;;;;;;;;;10121992;28;20140;-75
2024/03/16 15:55:53;;;;;;;5.00;4.10;;;;;;;;;;10129988;28;20094;-76
2024/03/16 16:00:46;;;;;;;6.18;4.45;;;;;;;;;;10129896;28;20052;-76
2024/03/16 16:05:39;;;;;;;6.60;3.97;;;;;;;;;;10129248;28;20508;-75
2024/03/16 16:10:33;;;;;;;5.80;4.40;;;;;;;;;;10105527;28;20158;-75
2024/03/16 16:15:27;;;;;;;8.55;5.40;;;;;;;;;;10132140;28;20056;-76
2024/03/16 16:20:19;;;;;;;5.45;3.95;;;;;;;;;;10131055;28;20040;-75
2024/03/16 16:25:12;;;;;;;5.95;3.35;;;;;;;;;;10130355;28;20059;-76
2024/03/16 16:30:07;;;;;;;7.30;4.03;;;;;;;;;;10127887;28;20083;-76
2024/03/16 16:34:59;;;;;;;4.50;4.10;;;;;;;;;;10131439;28;20072;-76
2024/03/16 16:39:51;;;;;;;6.78;4.20;;;;;;;;;;10126383;28;20059;-75
2024/03/16 16:44:44;;;;;;;4.88;3.95;;;;;;;;;;10126689;28;20056;-76
2024/03/16 16:49:36;;;;;;;4.45;4.05;;;;;;;;;;10127596;28;20397;-76
2024/03/16 16:54:29;;;;;;;4.93;3.53;;;;;;;;;;10126551;28;20052;-76
2024/03/16 16:59:21;;;;;;;10.82;5.25;;;;;;;;;;10126158;28;20052;-76
2024/03/16 17:04:13;;;;;;;6.05;5.20;;;;;;;;;;10125769;28;20087;-76
2024/03/16 17:09:06;;;;;;;18.85;12.48;;;;;;;;;;10125875;28;20067;-76
2024/03/16 17:13:59;;;;;;;8.60;6.15;;;;;;;;;;10126771;28;20058;-75
2024/03/16 17:18:51;;;;;;;37.00;27.10;;;;;;;;;;10125464;28;20052;-76
2024/03/16 17:23:44;;;;;;;13.98;9.05;;;;;;;;;;10126172;28;20068;-76
2024/03/16 17:28:36;;;;;;;8.40;4.85;;;;;;;;;;10126331;28;20052;-76
2024/03/16 17:33:28;;;;;;;24.23;17.65;;;;;;;;;;10125216;28;20059;-76
2024/03/16 17:38:22;;;;;;;11.73;9.15;;;;;;;;;;10126594;28;20052;-76
2024/03/16 17:43:15;;;;;;;11.38;8.40;;;;;;;;;;10124688;28;20388;-75
2024/03/16 17:48:07;;;;;;;10.15;6.97;;;;;;;;;;10124743;28;20056;-75
2024/03/16 17:53:00;;;;;;;13.98;8.27;;;;;;;;;;10124520;28;20036;-75
2024/03/16 17:57:58;;;;;;;6.97;4.25;;;;;;;;;;10125257;28;20083;-76
2024/03/16 18:02:49;;;;;;;7.35;4.60;;;;;;;;;;10123726;28;20057;-75
2024/03/16 18:07:42;;;;;;;5.60;5.00;;;;;;;;;;10125036;28;20051;-76
2024/03/16 18:12:35;;;;;;;8.02;5.00;;;;;;;;;;10125142;28;20062;-77
2024/03/16 18:17:27;;;;;;;11.20;5.40;;;;;;;;;;10124664;28;20047;-73
2024/03/16 18:22:20;;;;;;;9.70;4.90;;;;;;;;;;10124470;28;20048;-76
2024/03/16 18:27:12;;;;;;;8.73;6.50;;;;;;;;;;10124563;28;20052;-75
2024/03/16 18:32:06;;;;;;;12.75;9.07;;;;;;;;;;10122321;28;20107;-75
2024/03/16 18:36:58;;;;;;;13.07;10.82;;;;;;;;;;10123885;28;20044;-75
2024/03/16 18:41:50;;;;;;;169.75;112.85;;;;;;;;;;10124141;28;20090;-76
2024/03/16 18:46:42;;;;;;;47.67;36.42;;;;;;;;;;10122892;28;20048;-76
2024/03/16 18:51:35;;;;;;;13.75;11.27;;;;;;;;;;10121894;28;20073;-76
2024/03/16 18:56:28;;;;;;;26.83;20.70;;;;;;;;;;10120275;28;20049;-76
2024/03/16 19:01:20;;;;;;;14.75;10.57;;;;;;;;;;10122227;28;20056;-76
2024/03/16 19:06:12;;;;;;;11.63;8.38;;;;;;;;;;10122845;28;20137;-76
2024/03/16 19:11:07;;;;;;;17.58;10.82;;;;;;;;;;10123035;28;20478;-76
2024/03/16 19:16:00;;;;;;;8.13;6.78;;;;;;;;;;10123033;28;20041;-76
2024/03/16 19:20:54;;;;;;;10.30;6.80;;;;;;;;;;10114301;28;20067;-77
2024/03/16 19:25:50;;;;;;;10.43;6.68;;;;;;;;;;10119892;28;20527;-76
2024/03/16 19:30:43;;;;;;;17.92;7.03;;;;;;;;;;10122735;28;20407;-76
2024/03/16 19:35:35;;;;;;;22.73;17.73;;;;;;;;;;10115552;28;20048;-75
2024/03/16 19:40:28;;;;;;;10.88;8.68;;;;;;;;;;10114503;28;20492;-77
2024/03/16 19:45:20;;;;;;;14.15;9.35;;;;;;;;;;10121936;28;20059;-76
2024/03/16 19:50:12;;;;;;;11.50;8.93;;;;;;;;;;10122063;28;20053;-76
2024/03/16 19:55:07;;;;;;;25.25;21.50;;;;;;;;;;10120725;28;20044;-76
2024/03/16 20:00:05;;;;;;;29.33;22.92;;;;;;;;;;10122871;28;20052;-76
2024/03/16 20:05:00;;;;;;;14.45;12.52;;;;;;;;;;10120946;28;20420;-76
2024/03/16 20:09:56;;;;;;;17.13;10.15;;;;;;;;;;10116365;28;20389;-77
2024/03/16 20:14:49;;;;;;;31.08;21.45;;;;;;;;;;10120757;28;20060;-78
2024/03/16 20:19:41;;;;;;;11.48;9.88;;;;;;;;;;10122213;28;20049;-77
2024/03/16 20:24:34;;;;;;;10.70;8.10;;;;;;;;;;10118573;28;20052;-76
2024/03/16 20:29:26;;;;;;;10.55;6.68;;;;;;;;;;10117333;28;20049;-76
2024/03/16 20:34:19;;;;;;;8.70;6.25;;;;;;;;;;10120896;28;20101;-76
2024/03/16 20:39:10;;;;;;;7.03;6.35;;;;;;;;;;10118643;28;20056;-77
2024/03/16 20:44:03;;;;;;;8.00;5.28;;;;;;;;;;10124166;28;20053;-77
2024/03/16 20:48:56;;;;;;;7.55;6.40;;;;;;;;;;10128581;28;20044;-77
2024/03/16 20:53:48;;;;;;;9.27;6.70;;;;;;;;;;10123856;28;20121;-76
2024/03/16 20:58:41;;;;;;;5.55;5.05;;;;;;;;;;10121274;28;20493;-76
2024/03/16 21:03:33;;;;;;;5.85;4.40;;;;;;;;;;10124686;28;20048;-76
2024/03/16 21:08:26;;;;;;;7.85;6.38;;;;;;;;;;10127639;28;20393;-76
2024/03/16 21:13:19;;;;;;;7.32;5.70;;;;;;;;;;10124715;28;20129;-75
2024/03/16 21:18:12;;;;;;;5.70;5.25;;;;;;;;;;10127432;28;20674;-77
2024/03/16 21:23:05;;;;;;;9.05;4.72;;;;;;;;;;10126879;28;20045;-77
2024/03/16 21:27:57;;;;;;;12.80;11.43;;;;;;;;;;10124866;28;20056;-78
2024/03/16 21:32:50;;;;;;;8.30;7.38;;;;;;;;;;10124361;28;20090;-75
2024/03/16 21:37:42;;;;;;;8.20;7.47;;;;;;;;;;10126660;28;20048;-75
2024/03/16 21:42:34;;;;;;;8.25;7.45;;;;;;;;;;10125737;28;20051;-77
2024/03/16 21:47:28;;;;;;;6.80;6.15;;;;;;;;;;10125333;28;20135;-78
2024/03/16 21:52:21;;;;;;;8.30;6.55;;;;;;;;;;10118789;28;20048;-77
2024/03/16 21:57:13;;;;;;;7.70;6.45;;;;;;;;;;10122775;28;20500;-77
2024/03/16 22:02:07;;;;;;;8.43;7.47;;;;;;;;;;10126870;28;20489;-77
2024/03/16 22:07:01;;;;;;;10.73;8.45;;;;;;;;;;10118959;28;20052;-77
2024/03/16 22:11:54;;;;;;;11.25;8.30;;;;;;;;;;10120315;28;20131;-77
2024/03/16 22:16:46;;;;;;;12.45;8.20;;;;;;;;;;10123193;28;20408;-75
2024/03/16 22:21:39;;;;;;;12.10;9.23;;;;;;;;;;10111255;28;20050;-76
2024/03/16 22:26:31;;;;;;;9.80;8.23;;;;;;;;;;10112721;28;20473;-76
2024/03/16 22:31:26;;;;;;;12.98;9.13;;;;;;;;;;10114428;28;20041;-76
2024/03/16 22:36:18;;;;;;;12.13;8.30;;;;;;;;;;10115296;28;20047;-74
2024/03/16 22:41:11;;;;;;;9.48;7.60;;;;;;;;;;10116096;28;20040;-76
2024/03/16 22:46:05;;;;;;;12.88;7.05;;;;;;;;;;10111683;28;20131;-75
2024/03/16 22:50:57;;;;;;;9.73;6.85;;;;;;;;;;10116760;28;20045;-74
2024/03/16 22:55:50;;;;;;;7.53;5.93;;;;;;;;;;10122523;28;20084;-75
2024/03/16 23:00:51;;;;;;;7.63;6.20;;;;;;;;;;10123408;28;20071;-75
2024/03/16 23:05:48;;;;;;;8.60;7.30;;;;;;;;;;10125632;28;20049;-75
2024/03/16 23:10:40;;;;;;;7.85;6.60;;;;;;;;;;10125832;28;20504;-74
2024/03/16 23:15:35;;;;;;;9.52;7.22;;;;;;;;;;10125468;28;20052;-75
2024/03/16 23:20:27;;;;;;;7.82;6.40;;;;;;;;;;10125778;28;20045;-74
2024/03/16 23:25:19;;;;;;;11.20;6.70;;;;;;;;;;10113735;28;20048;-73
2024/03/16 23:30:13;;;;;;;9.13;5.97;;;;;;;;;;10125091;28;20052;-72
2024/03/16 23:35:10;;;;;;;7.65;6.85;;;;;;;;;;10125304;28;20060;-74
2024/03/16 23:40:07;;;;;;;10.60;7.45;;;;;;;;;;10109081;28;20049;-74
2024/03/16 23:45:00;;;;;;;7.85;6.72;;;;;;;;;;10124977;28;20467;-74
2024/03/16 23:49:52;;;;;;;9.07;7.70;;;;;;;;;;10122170;28;20076;-73
2024/03/16 23:54:45;;;;;;;8.95;6.55;;;;;;;;;;10123817;28;20041;-75
2024/03/16 23:59:37;;;;;;;10.77;8.02;;;;;;;;;;10111377;28;20071;-73
